createdAt,value
2022-12-12T00:02:07.360Z,16.30
2022-12-12T00:04:37.661Z,16.20
2022-12-12T00:07:08.385Z,16.20
2022-12-12T00:09:38.716Z,16.10
2022-12-12T00:12:09.118Z,16.10
2022-12-12T00:14:40.602Z,16.20
2022-12-12T00:17:11.928Z,16.20
2022-12-12T00:19:42.682Z,16.30
2022-12-12T00:22:15.080Z,16.30
2022-12-12T00:24:45.352Z,16.40
2022-12-12T00:27:15.653Z,16.60
2022-12-12T00:29:50.087Z,17.00
2022-12-12T00:32:25.260Z,17.40
2022-12-12T00:34:59.772Z,17.80
2022-12-12T00:37:30.017Z,18.00
2022-12-12T00:40:00.950Z,18.40
2022-12-12T00:42:33.493Z,18.70
2022-12-12T00:45:04.557Z,18.90
2022-12-12T00:47:35.144Z,18.90
2022-12-12T00:50:07.893Z,19.00
2022-12-12T00:52:39.643Z,18.90
2022-12-12T00:55:11.150Z,18.70
2022-12-12T00:57:43.285Z,18.60
2022-12-12T01:00:17.532Z,18.50
2022-12-12T01:02:50.325Z,18.30
2022-12-12T01:05:21.188Z,18.10
2022-12-12T01:07:52.073Z,17.90
2022-12-12T01:10:30.453Z,17.60
2022-12-12T01:13:00.990Z,17.30
2022-12-12T01:15:31.844Z,17.00
2022-12-12T01:18:02.048Z,16.80
2022-12-12T01:20:33.131Z,16.60
2022-12-12T01:23:03.849Z,16.50
2022-12-12T01:25:34.240Z,16.40
2022-12-12T01:28:05.112Z,16.40
2022-12-12T01:30:36.230Z,16.40
2022-12-12T01:33:08.129Z,16.50
2022-12-12T01:35:39.471Z,16.60
2022-12-12T01:38:10.445Z,16.80
2022-12-12T01:40:41.408Z,16.90
2022-12-12T01:43:20.788Z,17.00
2022-12-12T01:46:05.805Z,17.10
2022-12-12T01:48:47.514Z,17.10
2022-12-12T01:51:22.937Z,17.10
2022-12-12T01:54:05.183Z,17.00
2022-12-12T01:56:36.993Z,17.10
2022-12-12T01:59:09.666Z,17.40
2022-12-12T02:01:41.559Z,17.60
2022-12-12T02:04:13.265Z,17.80
2022-12-12T02:06:46.084Z,18.00
2022-12-12T02:09:22.508Z,18.30
2022-12-12T02:11:55.936Z,18.30
2022-12-12T02:14:43.637Z,18.40
2022-12-12T02:17:41.079Z,18.40
2022-12-12T02:20:39.033Z,18.50
2022-12-12T02:23:53.970Z,18.60
2022-12-12T02:26:55.309Z,18.70
2022-12-12T02:29:57.813Z,18.90
2022-12-12T02:36:21.852Z,19.10
2022-12-12T02:39:33.077Z,18.80
2022-12-12T02:42:20.978Z,18.50
2022-12-12T02:44:59.662Z,18.30
2022-12-12T02:47:35.056Z,18.10
2022-12-12T02:50:14.581Z,18.20
2022-12-12T02:52:50.997Z,18.40
2022-12-12T02:55:22.720Z,18.50
2022-12-12T02:57:56.247Z,18.60
2022-12-12T03:00:27.022Z,18.60
2022-12-12T03:03:40.145Z,18.80
2022-12-12T03:06:46.165Z,19.00
2022-12-12T03:09:19.869Z,19.00
2022-12-12T03:12:12.427Z,18.90
2022-12-12T03:14:51.976Z,18.50
2022-12-12T03:17:28.027Z,18.20
2022-12-12T03:20:17.240Z,18.20
2022-12-12T03:22:51.876Z,18.30
2022-12-12T03:25:36.413Z,18.50
2022-12-12T03:28:26.086Z,18.50
2022-12-12T03:31:00.774Z,18.60
2022-12-12T03:33:41.463Z,18.70
2022-12-12T03:36:26.900Z,18.70
2022-12-12T03:39:21.766Z,18.80
2022-12-12T03:42:27.740Z,18.90
2022-12-12T03:45:28.023Z,19.00
2022-12-12T03:48:05.798Z,18.90
2022-12-12T03:50:52.983Z,18.50
2022-12-12T03:53:30.370Z,18.00
2022-12-12T03:56:07.386Z,17.40
2022-12-12T03:58:44.450Z,16.70
2022-12-12T04:01:16.928Z,16.40
2022-12-12T04:04:12.729Z,16.30
2022-12-12T04:07:10.494Z,16.20
2022-12-12T04:09:59.163Z,16.20
2022-12-12T04:12:55.287Z,16.30
2022-12-12T04:15:49.215Z,16.40
2022-12-12T04:18:22.669Z,16.60
2022-12-12T04:21:38.025Z,16.80
2022-12-12T04:24:24.168Z,16.90
2022-12-12T04:27:09.454Z,17.00
2022-12-12T04:29:58.998Z,17.10
2022-12-12T04:32:32.408Z,17.20
2022-12-12T04:35:08.548Z,17.30
2022-12-12T04:38:00.296Z,17.30
2022-12-12T04:40:40.004Z,17.30
2022-12-12T04:43:31.737Z,17.30
2022-12-12T04:46:15.102Z,17.30
2022-12-12T04:49:17.987Z,17.30
2022-12-12T04:51:52.874Z,17.30
2022-12-12T04:54:59.836Z,17.30
2022-12-12T04:57:35.430Z,17.40
2022-12-12T05:00:12.369Z,17.50
2022-12-12T05:03:02.092Z,17.60
2022-12-12T05:06:12.962Z,17.70
2022-12-12T05:08:48.228Z,17.80
2022-12-12T05:11:23.782Z,17.60
2022-12-12T05:13:54.262Z,17.50
2022-12-12T05:16:42.488Z,17.40
2022-12-12T05:19:12.954Z,17.30
2022-12-12T05:21:43.173Z,17.00
2022-12-12T05:24:13.397Z,16.80
2022-12-12T05:26:43.696Z,16.50
2022-12-12T05:29:13.911Z,16.50
2022-12-12T05:31:44.182Z,16.40
2022-12-12T05:34:15.707Z,16.30
2022-12-12T05:36:45.982Z,16.20
2022-12-12T05:39:16.310Z,16.00
2022-12-12T05:41:47.039Z,15.80
2022-12-12T05:44:17.297Z,15.60
2022-12-12T05:46:47.522Z,15.50
2022-12-12T05:49:18.118Z,15.30
2022-12-12T05:51:50.293Z,15.30
2022-12-12T05:54:21.136Z,15.40
2022-12-12T05:56:52.638Z,15.60
2022-12-12T05:59:24.242Z,15.80
2022-12-12T06:01:54.950Z,16.00
2022-12-12T06:04:25.847Z,16.10
2022-12-12T06:06:56.389Z,16.10
2022-12-12T06:09:27.337Z,16.10
2022-12-12T06:11:58.235Z,15.80
2022-12-12T06:14:29.225Z,15.40
2022-12-12T06:16:59.892Z,14.90
2022-12-12T06:19:30.836Z,14.50
2022-12-12T06:22:01.133Z,14.30
2022-12-12T06:24:31.812Z,14.10
2022-12-12T06:27:02.119Z,14.00
2022-12-12T06:29:32.850Z,14.00
2022-12-12T06:32:03.839Z,13.90
2022-12-12T06:34:34.531Z,13.90
2022-12-12T06:37:05.135Z,13.70
2022-12-12T06:39:35.638Z,13.60
2022-12-12T06:42:06.414Z,13.50
2022-12-12T06:44:36.678Z,13.50
2022-12-12T06:47:07.392Z,13.60
2022-12-12T06:49:38.176Z,13.70
2022-12-12T06:52:09.274Z,13.70
2022-12-12T06:54:40.223Z,13.80
2022-12-12T06:57:12.483Z,13.90
2022-12-12T06:59:43.369Z,13.90
2022-12-12T07:02:15.722Z,14.00
2022-12-12T07:04:46.433Z,14.10
2022-12-12T07:07:17.193Z,14.10
2022-12-12T07:09:48.617Z,14.20
2022-12-12T07:12:18.859Z,14.30
2022-12-12T07:14:49.615Z,14.40
2022-12-12T07:17:20.600Z,14.40
2022-12-12T07:19:51.248Z,14.40
2022-12-12T07:22:21.969Z,14.40
2022-12-12T07:24:54.762Z,14.50
2022-12-12T07:27:25.467Z,14.50
2022-12-12T07:29:56.158Z,14.50
2022-12-12T07:32:26.886Z,14.50
2022-12-12T07:34:57.622Z,14.60
2022-12-12T07:37:29.003Z,14.60
2022-12-12T07:40:00.205Z,14.60
2022-12-12T07:42:31.023Z,14.60
2022-12-12T07:45:01.739Z,14.60
2022-12-12T07:47:32.829Z,14.60
2022-12-12T07:50:04.179Z,14.60
2022-12-12T07:52:34.797Z,14.50
2022-12-12T07:55:06.513Z,14.30
2022-12-12T07:57:37.211Z,14.30
2022-12-12T08:00:15.336Z,14.20
2022-12-12T08:02:45.647Z,14.20
2022-12-12T08:05:16.841Z,14.20
2022-12-12T08:07:49.134Z,14.10
2022-12-12T08:10:20.290Z,14.10
2022-12-12T08:12:50.964Z,14.10
2022-12-12T08:15:22.199Z,14.10
2022-12-12T08:17:53.151Z,14.20
2022-12-12T08:20:25.035Z,14.10
2022-12-12T08:22:55.702Z,14.20
2022-12-12T08:25:26.008Z,14.30
2022-12-12T08:27:56.332Z,14.40
2022-12-12T08:30:26.585Z,14.50
2022-12-12T08:32:57.367Z,14.40
2022-12-12T08:35:29.975Z,14.40
2022-12-12T08:38:01.986Z,14.40
2022-12-12T08:40:32.604Z,14.30
2022-12-12T08:43:03.283Z,14.20
2022-12-12T08:45:34.338Z,14.10
2022-12-12T08:48:05.276Z,14.00
2022-12-12T08:50:36.053Z,14.00
2022-12-12T08:53:06.840Z,13.80
2022-12-12T08:55:38.132Z,13.80
2022-12-12T08:58:09.096Z,13.60
2022-12-12T09:00:39.746Z,13.50
2022-12-12T09:03:10.165Z,13.40
2022-12-12T09:05:44.546Z,13.30
2022-12-12T09:08:26.407Z,13.30
2022-12-12T09:10:57.138Z,13.20
2022-12-12T09:13:27.881Z,13.20
2022-12-12T09:15:59.295Z,13.10
2022-12-12T09:18:30.852Z,13.10
2022-12-12T09:21:02.367Z,13.10
2022-12-12T09:23:33.276Z,13.10
2022-12-12T09:26:09.024Z,13.10
2022-12-12T09:28:39.957Z,13.20
2022-12-12T09:31:12.432Z,13.20
2022-12-12T09:33:44.981Z,13.30
2022-12-12T09:36:16.678Z,13.30
2022-12-12T09:38:47.585Z,13.30
2022-12-12T09:41:22.212Z,13.40
2022-12-12T09:44:11.223Z,13.40
2022-12-12T09:46:44.544Z,13.40
2022-12-12T09:49:43.539Z,13.40
2022-12-12T09:52:18.772Z,13.20
2022-12-12T09:54:49.669Z,13.00
2022-12-12T09:57:43.635Z,12.90
2022-12-12T10:00:17.375Z,12.70
2022-12-12T10:03:17.662Z,12.60
2022-12-12T10:09:14.650Z,12.30
2022-12-12T10:11:52.140Z,12.20
2022-12-12T10:14:47.319Z,12.20
2022-12-12T10:17:30.414Z,12.10
2022-12-12T10:20:09.904Z,12.10
2022-12-12T10:23:05.168Z,12.00
2022-12-12T10:25:44.797Z,11.90
2022-12-12T10:28:18.115Z,11.90
2022-12-12T10:31:03.831Z,11.80
2022-12-12T10:33:51.378Z,11.80
2022-12-12T10:36:39.827Z,11.70
2022-12-12T10:39:19.470Z,11.80
2022-12-12T10:42:04.222Z,11.80
2022-12-12T10:44:57.772Z,11.70
2022-12-12T10:47:28.435Z,11.70
2022-12-12T10:50:14.636Z,11.70
2022-12-12T10:52:45.662Z,11.70
2022-12-12T10:55:26.148Z,11.70
2022-12-12T10:58:08.337Z,11.70
2022-12-12T11:00:45.430Z,11.70
2022-12-12T11:03:43.514Z,11.70
2022-12-12T11:06:20.906Z,11.70
2022-12-12T11:09:03.049Z,11.70
2022-12-12T11:11:33.968Z,11.70
2022-12-12T11:14:06.026Z,11.70
2022-12-12T11:16:44.564Z,11.70
2022-12-12T11:19:29.030Z,11.70
2022-12-12T11:22:06.564Z,11.70
2022-12-12T11:24:39.260Z,11.70
2022-12-12T11:27:18.352Z,11.70
2022-12-12T11:30:16.221Z,11.70
2022-12-12T11:32:50.673Z,11.70
2022-12-12T11:35:48.755Z,11.70
2022-12-12T11:38:32.918Z,11.70
2022-12-12T11:41:10.338Z,11.70
2022-12-12T11:43:47.784Z,11.60
2022-12-12T11:46:18.719Z,11.50
2022-12-12T11:49:20.239Z,11.50
2022-12-12T11:51:51.511Z,11.40
2022-12-12T11:54:30.246Z,11.40
2022-12-12T11:57:16.948Z,11.30
2022-12-12T12:00:18.029Z,11.30
2022-12-12T12:03:09.090Z,11.30
2022-12-12T12:05:47.759Z,11.30
2022-12-12T12:08:41.812Z,11.30
2022-12-12T12:11:39.583Z,11.20
2022-12-12T12:14:34.596Z,11.20
2022-12-12T12:17:24.890Z,11.20
2022-12-12T12:20:14.391Z,11.20
2022-12-12T12:23:21.002Z,11.30
2022-12-12T12:26:12.077Z,11.30
2022-12-12T12:29:03.644Z,11.30
2022-12-12T12:31:53.634Z,11.30
2022-12-12T12:34:34.107Z,11.40
2022-12-12T12:37:16.830Z,11.40
2022-12-12T12:39:56.968Z,11.40
2022-12-12T12:42:53.795Z,11.40
2022-12-12T12:45:39.089Z,11.40
2022-12-12T12:48:29.672Z,11.40
2022-12-12T12:51:13.677Z,11.40
2022-12-12T12:53:52.691Z,11.40
2022-12-12T12:56:27.952Z,11.40
2022-12-12T12:59:11.981Z,11.40
2022-12-12T13:01:52.829Z,11.30
2022-12-12T13:04:43.719Z,11.30
2022-12-12T13:07:17.814Z,11.20
2022-12-12T13:10:00.410Z,11.20
2022-12-12T13:12:44.753Z,11.20
2022-12-12T13:15:34.873Z,11.10
2022-12-12T13:18:17.646Z,11.10
2022-12-12T13:21:11.237Z,11.10
2022-12-12T13:24:06.362Z,11.10
2022-12-12T13:27:03.990Z,11.00
2022-12-12T13:29:55.520Z,11.00
2022-12-12T13:32:40.687Z,11.00
2022-12-12T13:35:17.234Z,11.00
2022-12-12T13:37:55.347Z,10.90
2022-12-12T13:40:41.493Z,11.00
2022-12-12T13:43:44.200Z,10.90
2022-12-12T13:46:29.437Z,11.00
2022-12-12T13:49:08.551Z,10.90
2022-12-12T13:51:43.286Z,10.90
2022-12-12T13:54:14.703Z,10.90
2022-12-12T13:56:47.282Z,10.90
2022-12-12T13:59:29.759Z,10.80
2022-12-12T14:02:27.497Z,10.70
2022-12-12T14:05:18.508Z,10.70
2022-12-12T14:08:02.385Z,10.60
2022-12-12T14:10:54.268Z,10.40
2022-12-12T14:13:46.909Z,10.40
2022-12-12T14:16:18.025Z,10.30
2022-12-12T14:18:57.136Z,10.20
2022-12-12T14:21:41.797Z,10.20
2022-12-12T14:24:48.362Z,10.10
2022-12-12T14:27:19.179Z,10.10
2022-12-12T14:29:49.483Z,10.10
2022-12-12T14:32:51.399Z,10.10
2022-12-12T14:36:02.781Z,10.10
2022-12-12T14:38:39.583Z,10.10
2022-12-12T14:41:19.914Z,10.20
2022-12-12T14:44:36.121Z,10.20
2022-12-12T14:46:47.707Z,10.30
2022-12-12T14:49:20.817Z,10.40
2022-12-12T14:51:56.491Z,10.40
2022-12-12T14:54:28.918Z,10.50
2022-12-12T14:57:01.199Z,10.50
2022-12-12T14:59:49.814Z,10.60
2022-12-12T15:02:28.383Z,10.60
2022-12-12T15:05:05.174Z,10.70
2022-12-12T15:07:40.421Z,10.70
2022-12-12T15:10:32.955Z,10.70
2022-12-12T15:13:04.465Z,10.70
2022-12-12T15:15:37.790Z,10.70
2022-12-12T15:18:08.926Z,10.70
2022-12-12T15:20:39.449Z,10.80
2022-12-12T15:23:10.480Z,10.80
2022-12-12T15:25:51.344Z,10.80
2022-12-12T15:28:27.912Z,10.80
2022-12-12T15:31:00.000Z,10.80
2022-12-12T15:33:31.488Z,10.70
2022-12-12T15:36:09.502Z,10.70
2022-12-12T15:38:39.713Z,10.70
2022-12-12T15:41:13.748Z,10.60
2022-12-12T15:43:46.206Z,10.60
2022-12-12T15:46:17.764Z,10.60
2022-12-12T15:48:50.754Z,10.60
2022-12-12T15:51:25.332Z,10.60
2022-12-12T15:54:00.044Z,10.50
2022-12-12T15:56:32.446Z,10.50
2022-12-12T15:59:11.465Z,10.50
2022-12-12T16:01:41.778Z,10.50
2022-12-12T16:04:12.205Z,10.40
2022-12-12T16:06:44.942Z,10.40
2022-12-12T16:09:29.032Z,10.30
2022-12-12T16:12:02.546Z,10.20
2022-12-12T16:14:44.703Z,10.10
2022-12-12T16:17:23.919Z,10.10
2022-12-12T16:20:00.526Z,10.00
2022-12-12T16:22:44.252Z,10.10
2022-12-12T16:25:29.204Z,10.00
2022-12-12T16:28:08.307Z,10.00
2022-12-12T16:30:43.491Z,10.00
2022-12-12T16:33:39.562Z,10.00
2022-12-12T16:36:12.889Z,9.90
2022-12-12T16:38:44.828Z,9.90
2022-12-12T16:41:19.995Z,9.90
2022-12-12T16:43:50.279Z,9.80
2022-12-12T16:46:26.306Z,9.80
2022-12-12T16:49:07.406Z,9.70
2022-12-12T16:51:43.671Z,9.70
2022-12-12T16:54:19.011Z,9.70
2022-12-12T16:56:54.166Z,9.70
2022-12-12T16:59:24.422Z,9.60
2022-12-12T17:01:54.631Z,9.60
2022-12-12T17:04:26.538Z,9.50
2022-12-12T17:06:57.780Z,9.50
2022-12-12T17:09:30.248Z,9.50
2022-12-12T17:12:01.883Z,9.50
2022-12-12T17:14:34.009Z,9.50
2022-12-12T17:17:07.253Z,9.50
2022-12-12T17:19:37.642Z,9.40
2022-12-12T17:22:08.243Z,9.40
2022-12-12T17:24:38.522Z,9.40
2022-12-12T17:27:08.766Z,9.40
2022-12-12T17:29:39.076Z,9.30
2022-12-12T17:32:09.289Z,9.30
2022-12-12T17:34:39.547Z,9.30
2022-12-12T17:37:09.860Z,9.40
2022-12-12T17:39:40.303Z,9.50
2022-12-12T17:42:10.631Z,9.50
2022-12-12T17:44:41.432Z,9.60
2022-12-12T17:47:11.978Z,9.60
2022-12-12T17:49:42.185Z,9.70
2022-12-12T17:52:12.649Z,9.70
2022-12-12T17:54:43.443Z,9.70
2022-12-12T17:57:33.764Z,9.70
2022-12-12T18:00:04.212Z,9.80
2022-12-12T18:02:35.857Z,9.80
2022-12-12T18:05:06.400Z,9.90
2022-12-12T18:07:36.708Z,9.90
2022-12-12T18:10:10.965Z,9.90
2022-12-12T18:12:42.290Z,10.00
2022-12-12T18:15:14.881Z,10.00
2022-12-12T18:17:45.180Z,10.00
2022-12-12T18:20:16.754Z,10.00
2022-12-12T18:22:47.677Z,10.00
2022-12-12T18:25:18.156Z,10.00
2022-12-12T18:27:48.850Z,9.90
2022-12-12T18:30:19.227Z,9.90
2022-12-12T18:32:49.479Z,9.90
2022-12-12T18:35:21.428Z,9.80
2022-12-12T18:37:51.706Z,9.80
2022-12-12T18:40:21.934Z,9.70
2022-12-12T18:42:52.318Z,9.60
2022-12-12T18:45:23.003Z,9.60
2022-12-12T18:47:54.651Z,9.50
2022-12-12T18:50:24.982Z,9.50
2022-12-12T18:52:56.562Z,9.50
2022-12-12T18:55:31.942Z,9.50
2022-12-12T18:58:03.077Z,9.60
2022-12-12T19:00:33.355Z,9.60
2022-12-12T19:03:03.698Z,9.60
2022-12-12T19:05:33.933Z,9.70
2022-12-12T19:08:04.246Z,9.70
2022-12-12T19:10:36.027Z,9.70
2022-12-12T19:13:07.164Z,9.70
2022-12-12T19:15:37.556Z,9.70
2022-12-12T19:18:08.780Z,9.70
2022-12-12T19:20:39.779Z,9.70
2022-12-12T19:23:10.937Z,9.70
2022-12-12T19:25:42.949Z,9.70
2022-12-12T19:28:14.469Z,9.70
2022-12-12T19:30:45.703Z,9.70
2022-12-12T19:33:17.536Z,9.70
2022-12-12T19:35:48.159Z,9.80
2022-12-12T19:38:24.544Z,9.80
2022-12-12T19:40:55.801Z,9.80
2022-12-12T19:43:26.515Z,9.90
2022-12-12T19:46:23.568Z,9.90
2022-12-12T19:48:59.236Z,9.90
2022-12-12T19:51:34.602Z,10.00
2022-12-12T19:54:08.902Z,10.00
2022-12-12T19:56:44.314Z,10.10
2022-12-12T19:59:18.701Z,10.10
2022-12-12T20:01:50.247Z,10.20
2022-12-12T20:04:27.631Z,10.20
2022-12-12T20:06:59.454Z,10.30
2022-12-12T20:09:32.015Z,10.30
2022-12-12T20:12:04.621Z,10.30
2022-12-12T20:14:38.566Z,10.40
2022-12-12T20:17:09.365Z,10.40
2022-12-12T20:19:40.544Z,10.50
2022-12-12T20:22:11.122Z,10.50
2022-12-12T20:24:42.815Z,10.50
2022-12-12T20:27:13.121Z,10.60
2022-12-12T20:29:45.168Z,10.70
2022-12-12T20:32:16.028Z,10.70
2022-12-12T20:34:47.291Z,10.80
2022-12-12T20:37:20.142Z,10.80
2022-12-12T20:39:51.078Z,10.80
2022-12-12T20:42:21.285Z,10.90
2022-12-12T20:44:52.066Z,11.00
2022-12-12T20:47:24.579Z,11.20
2022-12-12T20:49:55.209Z,11.30
2022-12-12T20:52:25.976Z,11.50
2022-12-12T20:54:56.303Z,11.70
2022-12-12T20:57:27.119Z,12.00
2022-12-12T21:00:00.029Z,12.10
2022-12-12T21:02:30.778Z,12.20
2022-12-12T21:05:02.603Z,12.20
2022-12-12T21:07:35.304Z,12.30
2022-12-12T21:10:06.056Z,12.30
2022-12-12T21:12:37.127Z,12.30
2022-12-12T21:15:10.060Z,12.40
2022-12-12T21:17:40.344Z,12.40
2022-12-12T21:20:11.137Z,12.40
2022-12-12T21:22:41.377Z,12.40
2022-12-12T21:25:11.973Z,12.40
2022-12-12T21:27:42.881Z,12.50
2022-12-12T21:30:15.897Z,12.60
2022-12-12T21:32:47.055Z,12.80
2022-12-12T21:35:17.573Z,13.00
2022-12-12T21:37:48.028Z,13.20
2022-12-12T21:40:18.381Z,13.50
2022-12-12T21:42:48.727Z,13.90
2022-12-12T21:45:19.303Z,14.20
2022-12-12T21:47:49.873Z,14.40
2022-12-12T21:50:20.887Z,14.80
2022-12-12T21:53:15.625Z,15.10
2022-12-12T21:55:48.645Z,15.40
2022-12-12T21:58:19.466Z,15.70
2022-12-12T22:00:50.030Z,15.90
2022-12-12T22:03:20.510Z,16.10
2022-12-12T22:05:51.033Z,16.20
2022-12-12T22:08:33.428Z,16.40
2022-12-12T22:11:03.721Z,16.70
2022-12-12T22:13:39.641Z,16.90
2022-12-12T22:16:18.384Z,17.00
2022-12-12T22:18:58.585Z,17.10
2022-12-12T22:21:33.153Z,17.20
2022-12-12T22:24:04.332Z,17.40
2022-12-12T22:26:38.963Z,17.50
2022-12-12T22:29:13.294Z,17.40
2022-12-12T22:31:45.493Z,17.00
2022-12-12T22:34:19.508Z,16.70
2022-12-12T22:36:51.309Z,16.60
2022-12-12T22:39:25.478Z,16.70
2022-12-12T22:41:56.770Z,16.80
2022-12-12T22:44:28.858Z,16.90
2022-12-12T22:47:00.113Z,16.90
2022-12-12T22:49:30.616Z,16.90
2022-12-12T22:52:01.972Z,16.70
2022-12-12T22:54:32.952Z,16.40
2022-12-12T22:57:03.148Z,16.30
2022-12-12T22:59:33.495Z,16.20
2022-12-12T23:02:03.722Z,16.10
2022-12-12T23:04:34.024Z,16.20
2022-12-12T23:07:04.397Z,16.20
2022-12-12T23:09:36.245Z,16.30
2022-12-12T23:12:06.560Z,16.50
2022-12-12T23:14:36.826Z,16.70
2022-12-12T23:17:07.607Z,16.80
2022-12-12T23:19:37.923Z,17.00
2022-12-12T23:22:08.992Z,17.20
2022-12-12T23:24:39.481Z,17.30
2022-12-12T23:27:10.148Z,17.50
2022-12-12T23:29:40.869Z,17.40
2022-12-12T23:32:11.640Z,17.30
2022-12-12T23:34:42.194Z,17.40
2022-12-12T23:37:13.191Z,17.50
2022-12-12T23:39:43.469Z,17.60
2022-12-12T23:42:14.193Z,17.70
2022-12-12T23:44:44.803Z,17.80
2022-12-12T23:47:15.237Z,18.00
2022-12-12T23:49:45.461Z,17.90
2022-12-12T23:52:16.444Z,17.80
2022-12-12T23:54:46.760Z,17.90
2022-12-12T23:57:17.601Z,17.90
2022-12-12T23:59:48.364Z,18.10
